Observations for MILDENHALL RAF, United Kingdom (EGUN)

EGUN 260456Z AUTO 12003KT 9999 CLR 15/13 A3006 RMK AO2 SLP182 T01450132 $   
EGUN 260356Z AUTO 00000KT 9999 CLR 16/13 A3006 RMK AO2 SLP182 T01550126 $   
EGUN 260356Z AUTO 00000KT 9999 CLR 16/13 A3006 RMK AO2 SLP182 T01550126 .
EGUN 260256Z AUTO 00000KT 9999 CLR 16/12 A3006 RMK AO2 SLP182 T01630124 57005 $ 
EGUN 260256Z AUTO 00000KT 9999 CLR 16/12 A3006 RMK AO2 SLP182 T01630124 57005 .
EGUN 260156Z AUTO 13004KT 9999 CLR 17/12 A3007 RMK AO2 SLP185 T01670122 $   
EGUN 260156Z AUTO 13004KT 9999 CLR 17/12 A3007 RMK AO2 SLP185 T01670122 .
EGUN 260056Z AUTO 13003KT 9999 CLR 18/11 A3007 RMK AO2 SLP185 T01790114 $   
EGUN 260056Z AUTO 13003KT 9999 CLR 18/11 A3007 RMK AO2 SLP185 T01790114 .
EGUN 252356Z 15006KT 9999 CLR 19/12 A3008 RMK AO2A SLP189 T01910116 10284 20191 403200120 55001 $   
EGUN 252356Z 15006KT 9999 CLR 19/12 A3008 RMK AO2A SLP189 T01910116 10284 20191403200120 55001 .
EGUN 252256Z AUTO 13007KT 9999 CLR 21/12 A3008 RMK AO2 SLP189 T02060115 $   
EGUN 252256Z AUTO 13007KT 9999 CLR 21/12 A3008 RMK AO2 SLP189 T02060115 .
EGUN 252156Z AUTO 13007KT 9999 CLR 22/12 A3008 RMK AO2 SLP189 T02150123 $   
EGUN 252156Z AUTO 13007KT 9999 CLR 22/12 A3008 RMK AO2 SLP189 T02150123 .
EGUN 252056Z AUTO 13006KT 9999 CLR 22/13 A3008 RMK AO2 SLP189 T02220130 52012 $ 
EGUN 252056Z AUTO 13006KT 9999 CLR 22/13 A3008 RMK AO2 SLP189 T02220130 52012 .
EGUN 251956Z AUTO 13007KT 9999 CLR 24/13 A3008 RMK AO2 SLP189 T02370129 $   
EGUN 251956Z AUTO 13007KT 9999 CLR 24/13 A3008 RMK AO2 SLP189 T02370129 .
EGUN 251856Z AUTO 14008KT 9999 CLR 26/12 A3006 RMK AO2 SLP182 T02560124 $   
EGUN 251856Z AUTO 14008KT 9999 CLR 26/12 A3006 RMK AO2 SLP182 T02560124 .
EGUN 251756Z AUTO 13009KT 9999 CLR 28/12 A3005 RMK AO2 SLP179 T02840123 10320 20284 53004 $ 
EGUN 251756Z AUTO 13009KT 9999 CLR 28/12 A3005 RMK AO2 SLP179 T02840123 10320 20284 53004 .
EGUN 251656Z COR AUTO 14008KT 9999 CLR 31/11 A3004 RMK AO2 SLP175 WND DATA ESTMD ALSTG ESTMD T03050114 $ COR 1734   
EGUN 251656Z AUTO M 9999 CLR 31/11 A3004 RMK AO2 SLP175 T03050114 .
EGUN 251556Z AUTO 14008KT 9999 CLR 31/12 A3004 RMK AO2 SLP175 T03120115 $   
EGUN 251556Z AUTO 14008KT 9999 CLR 31/12 A3004 RMK AO2 SLP175 T03120115 .
EGUN 251456Z AUTO 13006KT 9999 CLR 32/12 A3004 RMK AO2 SLP175 T03180121 58003 $ 
EGUN 251456Z AUTO 13006KT 9999 CLR 32/12 A3004 RMK AO2 SLP175 T03180121 58003 .
EGUN 251356Z AUTO 07004KT 9999 CLR 32/11 A3004 RMK AO2 SLP175 T03160108 $   
EGUN 251356Z AUTO 07004KT 9999 CLR 32/11 A3004 RMK AO2 SLP175 T03160108 .
EGUN 251256Z COR 13007KT 9999 CLR 31/10 A3005 RMK AO2A SLP179 T03120100 $ COR 1302  
EGUN 251256Z 13007KT 9999 M 31/10 A3005 RMK AO2A SLP179 T03120100 $
EGUN 251256Z 13007KT 9999 M 31/10 A3005 RMK AO2A SLP179 T03120100 .
EGUN 251156Z AUTO 17007KT 9999 CLR 31/11 A3005 RMK AO2 SLP179 7//// T03080107 10308 20145 58004 $   
EGUN 251156Z AUTO 17007KT 9999 CLR 31/11 A3005 RMK AO2 SLP179 7//// T03080107 10308 20145 58004 .
EGUN 251056Z AUTO 16010KT 9999 CLR 30/12 A3006 RMK AO2 SLP182 T03000115 $   
EGUN 251056Z AUTO 16010KT 9999 CLR 30/12 A3006 RMK AO2 SLP182 T03000115 .
EGUN 250956Z AUTO 13003KT 9999 CLR 28/15 A3006 RMK AO2 SLP182 T02780148 $   
EGUN 250956Z AUTO 13003KT 9999 CLR 28/15 A3006 RMK AO2 SLP182 T02780148 .
EGUN 250856Z AUTO 14004KT 9999 CLR 24/16 A3006 RMK AO2 SLP182 T02440158 51006 PNO $ 
EGUN 250856Z AUTO 14004KT 9999 CLR 24/16 A3006 RMK AO2 SLP182 T02440158 51006 PNO .
EGUN 250756Z AUTO 12004KT 9999 CLR 20/18 A3006 RMK AO2 SLP182 T01960175 $   
EGUN 250756Z AUTO 12004KT 9999 CLR 20/18 A3006 RMK AO2 SLP182 T01960175 .
EGUN 250656Z AUTO 00000KT 8000 BR FEW190 16/16 A3006 RMK AO2 SLPNO T01600160 $  
EGUN 250656Z AUTO 00000KT 8000 BR FEW190 16/16 A3006 RMK AO2 SLPNO T01600160 .
EGUN 250556Z 00000KT 8000 BR FEW200 14/14 A3004 RMK AO2A SLPNO 60000 T01440144 10165 20120 53002 $  
EGUN 250556Z 00000KT 8000 BR FEW200 14/14 A3004 RMK AO2A SLPNO 60000 T01440144 10165 20120 53002 .
EGUN 250456Z AUTO 00000KT 6000 BR CLR 12/12 A3004 RMK AO2 RAE09 SLPNO P0000 T01200120 $ 
EGUN 250456Z AUTO 00000KT 6000 BR CLR 12/12 A3004 RMK AO2 RAE09 SLPNO P0000 T01200120 .
EGUN 250409Z AUTO 00000KT 8000 BR CLR 13/13 A3003 RMK AO2 RAE09 SLPNO $